Time;durP1;ratioP1;P1;durP2;ratioP2;P2;SDS_P1;SDS_P2;PMS_P1;PMS_P2;Temp;Humidity;BMP_temperature;BMP_pressure;BME280_temperature;BME280_humidity;BME280_pressure;Samples;Min_cycle;Max_cycle;Signal;HPM_P1;HPM_P2
2024/04/05 17:17:26;;;;;;;;;;;;;;;15.47;nan;100353.72;5146624;23;19920;-92
2024/04/05 17:20:14;;;;;;;;;;;;;;;15.47;nan;100351.00;5080900;23;19912;-93
2024/04/05 17:23:33;;;;;;;;;;;;;;;15.48;nan;100335.50;5112957;23;20236;-93
2024/04/05 17:26:12;;;;;;;;;;;;;;;15.48;nan;100343.66;5054445;23;19945;-94
2024/04/05 17:28:56;;;;;;;;;;;;;;;15.48;nan;100344.50;5055309;23;19928;-94
2024/04/05 17:31:57;;;;;;;;;;;;;;;15.49;nan;100343.47;5065720;23;19977;-91
2024/04/05 17:34:21;;;;;;;;;;;;;;;15.50;nan;100336.97;5055273;23;19977;-93
2024/04/05 17:39:59;;;;;;;;;;;;;;;15.49;nan;100326.31;5151629;23;19926;-92
2024/04/05 17:42:42;;;;;;;;;;;;;;;15.50;nan;100336.13;5129597;23;20007;-95
2024/04/05 17:45:46;;;;;;;;;;;;;;;15.52;nan;100342.19;5152708;23;19926;-95
2024/04/05 17:48:26;;;;;;;;;;;;;;;;;;;;;
2024/04/05 17:53:43;;;;;;;;;;;;;;;;;;;;;
2024/04/05 17:56:41;;;;;;;;;;;;;;;;;;;;;
2024/04/05 18:02:14;;;;;;;;;;;;;;;;;;;;;
2024/04/05 18:04:59;;;;;;;;;;;;;;;;;;;;;
2024/04/05 18:08:00;;;;;;;;;;;;;;;15.58;nan;100360.38;5131931;23;19910;-94
2024/04/05 18:14:04;;;;;;;;;;;;;;;15.61;nan;100356.34;5088453;23;20035;-94
2024/04/05 18:17:12;;;;;;;;;;;;;;;;;;;;;
2024/04/05 18:20:19;;;;;;;;;;;;;;;15.62;nan;100347.97;5042871;23;19976;-95
2024/04/05 18:23:06;;;;;;;;;;;;;;;15.64;nan;100351.31;5030377;23;19993;-89
2024/04/05 18:25:43;;;;;;;;;;;;;;;15.65;nan;100358.41;5045273;23;19966;-89
2024/04/05 18:28:04;;;;;;;;;;;;;;;15.66;nan;100348.38;5050237;23;20138;-87
2024/04/05 18:33:06;;;;;;;;;;;;;;;15.68;nan;100357.16;5003562;23;19929;-92
2024/04/05 18:35:29;;;;;;;;;;;;;;;15.70;nan;100356.94;5126675;23;19947;-95
2024/04/05 18:38:08;;;;;;;;;;;;;;;15.71;nan;100378.50;5129937;23;19931;-93
2024/04/05 18:40:33;;;;;;;;;;;;;;;15.72;nan;100380.19;5125271;23;19927;-95
2024/04/05 18:42:55;;;;;;;;;;;;;;;15.74;nan;100377.22;5129889;23;19931;-93
2024/04/05 18:45:39;;;;;;;;;;;;;;;15.74;nan;100374.50;5131284;23;20007;-93
2024/04/05 18:48:23;;;;;;;;;;;;;;;15.76;nan;100380.56;5121349;23;19927;-95
2024/04/05 18:50:50;;;;;;;;;;;;;;;15.76;nan;100375.13;5127930;23;20300;-92
2024/04/05 18:53:22;;;;;;;;;;;;;;;15.77;nan;100385.81;5126844;23;19935;-93
2024/04/05 18:56:10;;;;;;;;;;;;;;;15.79;nan;100393.78;5126946;23;19968;-92
2024/04/05 18:58:43;;;;;;;;;;;;;;;15.79;nan;100424.53;5126257;23;20244;-92
2024/04/05 19:01:05;;;;;;;;;;;;;;;15.81;nan;100449.66;5105125;23;19983;-94
2024/04/05 19:03:29;;;;;;;;;;;;;;;15.81;nan;100438.75;5126565;23;19927;-89
2024/04/05 19:05:53;;;;;;;;;;;;;;;15.80;nan;100453.47;5126154;23;20388;-90
2024/04/05 19:15:35;;;;;;;;;;;;;;;15.84;nan;100467.47;5152429;23;19920;-94
2024/04/05 19:18:54;;;;;;;;;;;;;;;15.85;nan;100475.41;5079059;23;20001;-92
2024/04/05 19:21:36;;;;;;;;;;;;;;;15.86;nan;100473.50;5152325;23;19927;-92
2024/04/05 19:24:37;;;;;;;;;;;;;;;;;;;;;
2024/04/05 19:27:17;;;;;;;;;;;;;;;15.85;nan;100483.56;5131413;23;19927;-92
2024/04/05 19:30:40;;;;;;;;;;;;;;;;;;;;;
2024/04/05 19:35:59;;;;;;;;;;;;;;;15.85;nan;100505.38;5087904;23;19927;-91
2024/04/05 19:39:02;;;;;;;;;;;;;;;15.80;nan;100493.47;5132702;23;19951;-92
2024/04/05 19:41:53;;;;;;;;;;;;;;;15.84;nan;100519.19;5029825;23;19989;-94
2024/04/05 19:44:45;;;;;;;;;;;;;;;15.82;nan;100522.13;5119945;23;19927;-95
2024/04/05 19:53:49;;;;;;;;;;;;;;;15.75;nan;100542.25;5030797;23;19964;-91
2024/04/05 19:56:28;;;;;;;;;;;;;;;15.72;nan;100543.53;5019375;23;19927;-96
2024/04/05 20:05:33;;;;;;;;;;;;;;;15.66;nan;100571.63;5082087;23;19944;-96
2024/04/05 20:08:04;;;;;;;;;;;;;;;15.64;nan;100584.59;4984865;23;20393;-93
2024/04/05 20:10:56;;;;;;;;;;;;;;;15.60;nan;100583.38;4990830;23;19947;-93
2024/04/05 20:13:18;;;;;;;;;;;;;;;15.58;nan;100585.44;5014119;23;19928;-92
2024/04/05 20:18:22;;;;;;;;;;;;;;;15.53;nan;100588.81;5067243;23;19928;-93
2024/04/05 20:20:42;;;;;;;;;;;;;;;15.52;nan;100599.91;5089113;23;19972;-90
2024/04/05 20:23:05;;;;;;;;;;;;;;;15.50;nan;100614.59;5082284;23;19936;-89
2024/04/05 20:25:31;;;;;;;;;;;;;;;15.49;nan;100601.19;5086304;23;20480;-88
2024/04/05 20:34:41;;;;;;;;;;;;;;;15.35;nan;100624.88;5083403;23;20307;-93
2024/04/05 20:37:15;;;;;;;;;;;;;;;15.39;nan;100642.44;5084967;23;19971;-91
2024/04/05 20:42:45;;;;;;;;;;;;;;;15.36;nan;100650.19;5088984;23;19928;-94
2024/04/05 20:45:31;;;;;;;;;;;;;;;15.34;nan;100652.28;5103423;23;19915;-94
2024/04/05 20:48:23;;;;;;;;;;;;;;;15.31;nan;100653.53;5101682;23;20004;-91
2024/04/05 20:50:44;;;;;;;;;;;;;;;15.30;nan;100660.88;5112317;23;19969;-91
2024/04/05 20:53:05;;;;;;;;;;;;;;;15.28;nan;100662.97;5096985;23;19996;-94
2024/04/05 20:55:39;;;;;;;;;;;;;;;;;;;;;
2024/04/05 20:58:09;;;;;;;;;;;;;;;15.24;nan;100669.88;5102516;23;19949;-94
2024/04/05 21:03:33;;;;;;;;;;;;;;;15.22;nan;100668.38;5082326;23;19944;-94
2024/04/05 21:06:32;;;;;;;;;;;;;;;;;;;;;
2024/04/05 21:09:11;;;;;;;;;;;;;;;15.18;nan;100683.47;5102938;23;19946;-91
2024/04/05 21:11:35;;;;;;;;;;;;;;;15.17;nan;100695.41;5125080;23;20399;-94
2024/04/05 21:13:56;;;;;;;;;;;;;;;15.13;nan;100698.53;5119692;23;19927;-95
2024/04/05 21:16:16;;;;;;;;;;;;;;;15.07;nan;100691.19;5130267;23;19967;-95
2024/04/05 21:18:55;;;;;;;;;;;;;;;15.12;nan;100702.31;5151948;23;20299;-92
2024/04/05 21:21:30;;;;;;;;;;;;;;;15.10;nan;100707.09;5150632;23;19927;-92
2024/04/05 21:23:54;;;;;;;;;;;;;;;15.08;nan;100709.19;5151922;23;19943;-92
2024/04/05 21:27:11;;;;;;;;;;;;;;;15.06;nan;100711.31;5128494;23;19932;-92
